sensor_id;sensor_type;location;lat;lon;timestamp;temperature;humidity
43183;DHT22;28802;38.578;-0.066;2022-09-02T00:01:46;27.40;99.90
43183;DHT22;28802;38.578;-0.066;2022-09-02T00:04:15;27.40;99.90
43183;DHT22;28802;38.578;-0.066;2022-09-02T00:06:43;27.40;99.90
43183;DHT22;28802;38.578;-0.066;2022-09-02T00:09:11;27.40;99.90
43183;DHT22;28802;38.578;-0.066;2022-09-02T00:11:39;27.50;99.90
43183;DHT22;28802;38.578;-0.066;2022-09-02T00:14:09;27.50;99.90
43183;DHT22;28802;38.578;-0.066;2022-09-02T00:16:36;27.50;99.90
43183;DHT22;28802;38.578;-0.066;2022-09-02T00:19:04;27.50;99.90
43183;DHT22;28802;38.578;-0.066;2022-09-02T00:21:31;27.50;99.90
43183;DHT22;28802;38.578;-0.066;2022-09-02T00:23:59;27.50;99.90
43183;DHT22;28802;38.578;-0.066;2022-09-02T00:26:25;27.50;99.90
43183;DHT22;28802;38.578;-0.066;2022-09-02T00:28:52;27.60;99.90
43183;DHT22;28802;38.578;-0.066;2022-09-02T00:31:18;27.60;99.90
43183;DHT22;28802;38.578;-0.066;2022-09-02T00:33:44;27.50;99.90
43183;DHT22;28802;38.578;-0.066;2022-09-02T00:36:11;27.50;99.90
43183;DHT22;28802;38.578;-0.066;2022-09-02T00:38:38;27.50;99.90
43183;DHT22;28802;38.578;-0.066;2022-09-02T00:41:07;27.50;99.90
43183;DHT22;28802;38.578;-0.066;2022-09-02T00:43:58;27.40;99.90
43183;DHT22;28802;38.578;-0.066;2022-09-02T00:46:26;27.40;99.90
43183;DHT22;28802;38.578;-0.066;2022-09-02T00:51:28;27.30;99.90
43183;DHT22;28802;38.578;-0.066;2022-09-02T00:53:55;27.40;99.90
43183;DHT22;28802;38.578;-0.066;2022-09-02T00:56:24;27.30;99.90
43183;DHT22;28802;38.578;-0.066;2022-09-02T00:58:51;27.40;99.90
43183;DHT22;28802;38.578;-0.066;2022-09-02T01:01:17;27.40;99.90
43183;DHT22;28802;38.578;-0.066;2022-09-02T01:03:43;27.30;99.90
43183;DHT22;28802;38.578;-0.066;2022-09-02T01:06:11;27.00;99.90
43183;DHT22;28802;38.578;-0.066;2022-09-02T01:08:45;27.00;99.90
43183;DHT22;28802;38.578;-0.066;2022-09-02T01:11:12;27.10;99.90
43183;DHT22;28802;38.578;-0.066;2022-09-02T01:13:41;27.20;99.90
43183;DHT22;28802;38.578;-0.066;2022-09-02T01:16:31;27.00;99.90
43183;DHT22;28802;38.578;-0.066;2022-09-02T01:19:01;26.90;99.90
43183;DHT22;28802;38.578;-0.066;2022-09-02T01:21:28;26.90;99.90
43183;DHT22;28802;38.578;-0.066;2022-09-02T01:23:53;27.00;99.90
43183;DHT22;28802;38.578;-0.066;2022-09-02T01:26:20;27.20;99.90
43183;DHT22;28802;38.578;-0.066;2022-09-02T01:28:45;27.10;99.90
43183;DHT22;28802;38.578;-0.066;2022-09-02T01:31:12;26.80;99.90
43183;DHT22;28802;38.578;-0.066;2022-09-02T01:33:38;26.70;99.90
43183;DHT22;28802;38.578;-0.066;2022-09-02T01:36:04;26.80;99.90
43183;DHT22;28802;38.578;-0.066;2022-09-02T01:38:31;26.90;99.90
43183;DHT22;28802;38.578;-0.066;2022-09-02T01:40:56;26.60;99.90
43183;DHT22;28802;38.578;-0.066;2022-09-02T01:43:25;26.60;99.90
43183;DHT22;28802;38.578;-0.066;2022-09-02T01:45:53;26.40;99.90
43183;DHT22;28802;38.578;-0.066;2022-09-02T01:48:21;26.20;99.90
43183;DHT22;28802;38.578;-0.066;2022-09-02T01:50:54;26.20;99.90
43183;DHT22;28802;38.578;-0.066;2022-09-02T01:53:21;26.20;99.90
43183;DHT22;28802;38.578;-0.066;2022-09-02T01:55:47;26.10;99.90
43183;DHT22;28802;38.578;-0.066;2022-09-02T01:58:13;26.00;99.90
43183;DHT22;28802;38.578;-0.066;2022-09-02T02:00:39;26.00;99.90
43183;DHT22;28802;38.578;-0.066;2022-09-02T02:03:05;26.30;99.90
43183;DHT22;28802;38.578;-0.066;2022-09-02T02:05:31;26.40;99.90
43183;DHT22;28802;38.578;-0.066;2022-09-02T02:07:59;26.50;99.90
43183;DHT22;28802;38.578;-0.066;2022-09-02T02:10:25;26.50;99.90
43183;DHT22;28802;38.578;-0.066;2022-09-02T02:12:51;26.50;99.90
43183;DHT22;28802;38.578;-0.066;2022-09-02T02:15:20;26.50;99.90
43183;DHT22;28802;38.578;-0.066;2022-09-02T02:17:46;26.50;99.90
43183;DHT22;28802;38.578;-0.066;2022-09-02T02:20:16;26.50;99.90
43183;DHT22;28802;38.578;-0.066;2022-09-02T02:22:42;26.70;99.90
43183;DHT22;28802;38.578;-0.066;2022-09-02T02:25:09;26.80;99.90
43183;DHT22;28802;38.578;-0.066;2022-09-02T02:27:35;26.90;99.90
43183;DHT22;28802;38.578;-0.066;2022-09-02T02:30:06;26.90;99.90
43183;DHT22;28802;38.578;-0.066;2022-09-02T02:32:32;26.90;99.90
43183;DHT22;28802;38.578;-0.066;2022-09-02T02:35:00;27.00;99.90
43183;DHT22;28802;38.578;-0.066;2022-09-02T02:37:26;26.90;99.90
43183;DHT22;28802;38.578;-0.066;2022-09-02T02:39:52;27.00;99.90
43183;DHT22;28802;38.578;-0.066;2022-09-02T02:42:19;27.10;99.90
43183;DHT22;28802;38.578;-0.066;2022-09-02T02:44:45;27.10;99.90
43183;DHT22;28802;38.578;-0.066;2022-09-02T02:47:12;27.10;99.90
43183;DHT22;28802;38.578;-0.066;2022-09-02T02:49:41;27.10;99.90
43183;DHT22;28802;38.578;-0.066;2022-09-02T02:52:07;27.30;99.90
43183;DHT22;28802;38.578;-0.066;2022-09-02T02:54:34;27.20;99.90
43183;DHT22;28802;38.578;-0.066;2022-09-02T02:57:00;27.10;99.90
43183;DHT22;28802;38.578;-0.066;2022-09-02T03:01:55;26.70;99.90
43183;DHT22;28802;38.578;-0.066;2022-09-02T03:04:21;26.70;99.90
43183;DHT22;28802;38.578;-0.066;2022-09-02T03:06:47;26.70;99.90
43183;DHT22;28802;38.578;-0.066;2022-09-02T03:09:14;26.80;99.90
43183;DHT22;28802;38.578;-0.066;2022-09-02T03:11:39;26.90;99.90
43183;DHT22;28802;38.578;-0.066;2022-09-02T03:14:06;26.90;99.90
43183;DHT22;28802;38.578;-0.066;2022-09-02T03:16:36;27.00;99.90
43183;DHT22;28802;38.578;-0.066;2022-09-02T03:19:03;27.00;99.90
43183;DHT22;28802;38.578;-0.066;2022-09-02T03:21:30;27.10;99.90
43183;DHT22;28802;38.578;-0.066;2022-09-02T03:23:56;27.00;99.90
43183;DHT22;28802;38.578;-0.066;2022-09-02T03:26:23;27.00;99.90
43183;DHT22;28802;38.578;-0.066;2022-09-02T03:28:53;26.90;99.90
43183;DHT22;28802;38.578;-0.066;2022-09-02T03:31:21;26.80;99.90
43183;DHT22;28802;38.578;-0.066;2022-09-02T03:33:49;26.70;99.90
43183;DHT22;28802;38.578;-0.066;2022-09-02T03:38:45;26.70;99.90
43183;DHT22;28802;38.578;-0.066;2022-09-02T03:41:11;26.60;99.90
43183;DHT22;28802;38.578;-0.066;2022-09-02T03:43:37;26.50;99.90
43183;DHT22;28802;38.578;-0.066;2022-09-02T03:46:03;26.40;99.90
43183;DHT22;28802;38.578;-0.066;2022-09-02T03:48:29;26.50;99.90
43183;DHT22;28802;38.578;-0.066;2022-09-02T03:50:56;26.50;99.90
43183;DHT22;28802;38.578;-0.066;2022-09-02T03:53:22;26.50;99.90
43183;DHT22;28802;38.578;-0.066;2022-09-02T03:55:54;26.50;99.90
43183;DHT22;28802;38.578;-0.066;2022-09-02T03:58:22;26.50;99.90
43183;DHT22;28802;38.578;-0.066;2022-09-02T04:00:53;26.50;99.90
43183;DHT22;28802;38.578;-0.066;2022-09-02T04:03:21;26.50;99.90
43183;DHT22;28802;38.578;-0.066;2022-09-02T04:05:48;26.40;99.90
43183;DHT22;28802;38.578;-0.066;2022-09-02T04:08:16;26.20;99.90
43183;DHT22;28802;38.578;-0.066;2022-09-02T04:10:42;26.20;99.90
43183;DHT22;28802;38.578;-0.066;2022-09-02T04:13:09;26.30;99.90
43183;DHT22;28802;38.578;-0.066;2022-09-02T04:15:41;26.50;99.90
43183;DHT22;28802;38.578;-0.066;2022-09-02T04:18:10;26.50;99.90
43183;DHT22;28802;38.578;-0.066;2022-09-02T04:20:38;26.50;99.90
43183;DHT22;28802;38.578;-0.066;2022-09-02T04:23:04;26.30;99.90
43183;DHT22;28802;38.578;-0.066;2022-09-02T04:25:31;26.30;99.90
43183;DHT22;28802;38.578;-0.066;2022-09-02T04:27:58;26.20;99.90
43183;DHT22;28802;38.578;-0.066;2022-09-02T04:30:24;26.30;99.90
43183;DHT22;28802;38.578;-0.066;2022-09-02T04:32:53;26.40;99.90
43183;DHT22;28802;38.578;-0.066;2022-09-02T04:35:19;26.40;99.90
43183;DHT22;28802;38.578;-0.066;2022-09-02T04:37:46;26.40;99.90
43183;DHT22;28802;38.578;-0.066;2022-09-02T04:40:14;26.20;99.90
43183;DHT22;28802;38.578;-0.066;2022-09-02T04:42:40;26.10;99.90
43183;DHT22;28802;38.578;-0.066;2022-09-02T04:45:08;26.20;99.90
43183;DHT22;28802;38.578;-0.066;2022-09-02T04:47:35;26.20;99.90
43183;DHT22;28802;38.578;-0.066;2022-09-02T04:50:03;26.30;99.90
43183;DHT22;28802;38.578;-0.066;2022-09-02T04:52:32;26.40;99.90
43183;DHT22;28802;38.578;-0.066;2022-09-02T04:54:58;26.40;99.90
43183;DHT22;28802;38.578;-0.066;2022-09-02T04:57:24;26.40;99.90
43183;DHT22;28802;38.578;-0.066;2022-09-02T04:59:51;26.40;99.90
43183;DHT22;28802;38.578;-0.066;2022-09-02T05:02:19;26.30;99.90
43183;DHT22;28802;38.578;-0.066;2022-09-02T05:04:45;26.30;99.90
43183;DHT22;28802;38.578;-0.066;2022-09-02T05:07:18;26.20;99.90
43183;DHT22;28802;38.578;-0.066;2022-09-02T05:09:46;26.20;99.90
43183;DHT22;28802;38.578;-0.066;2022-09-02T05:12:12;26.10;99.90
43183;DHT22;28802;38.578;-0.066;2022-09-02T05:14:43;26.00;99.90
43183;DHT22;28802;38.578;-0.066;2022-09-02T05:17:09;26.00;99.90
43183;DHT22;28802;38.578;-0.066;2022-09-02T05:19:39;26.10;99.90
43183;DHT22;28802;38.578;-0.066;2022-09-02T05:22:05;26.20;99.90
43183;DHT22;28802;38.578;-0.066;2022-09-02T05:24:35;26.20;99.90
43183;DHT22;28802;38.578;-0.066;2022-09-02T05:27:05;26.30;99.90
43183;DHT22;28802;38.578;-0.066;2022-09-02T05:29:33;26.20;99.90
43183;DHT22;28802;38.578;-0.066;2022-09-02T05:32:00;26.10;99.90
43183;DHT22;28802;38.578;-0.066;2022-09-02T05:34:26;26.00;99.90
43183;DHT22;28802;38.578;-0.066;2022-09-02T05:36:55;26.00;99.90
43183;DHT22;28802;38.578;-0.066;2022-09-02T05:39:22;26.00;99.90
43183;DHT22;28802;38.578;-0.066;2022-09-02T05:41:49;26.00;99.90
43183;DHT22;28802;38.578;-0.066;2022-09-02T05:44:15;26.10;99.90
43183;DHT22;28802;38.578;-0.066;2022-09-02T05:46:42;26.10;99.90
43183;DHT22;28802;38.578;-0.066;2022-09-02T05:49:09;26.10;99.90
43183;DHT22;28802;38.578;-0.066;2022-09-02T05:51:49;26.20;99.90
43183;DHT22;28802;38.578;-0.066;2022-09-02T05:54:23;26.20;99.90
43183;DHT22;28802;38.578;-0.066;2022-09-02T05:56:54;26.30;99.90
43183;DHT22;28802;38.578;-0.066;2022-09-02T05:59:22;26.30;99.90
43183;DHT22;28802;38.578;-0.066;2022-09-02T06:01:48;26.40;99.90
43183;DHT22;28802;38.578;-0.066;2022-09-02T06:04:15;26.50;99.90
43183;DHT22;28802;38.578;-0.066;2022-09-02T06:06:41;26.40;99.90
43183;DHT22;28802;38.578;-0.066;2022-09-02T06:09:11;26.70;99.90
43183;DHT22;28802;38.578;-0.066;2022-09-02T06:11:39;26.80;99.90
43183;DHT22;28802;38.578;-0.066;2022-09-02T06:14:10;27.10;99.90
43183;DHT22;28802;38.578;-0.066;2022-09-02T06:16:39;27.90;99.90
43183;DHT22;28802;38.578;-0.066;2022-09-02T06:19:10;28.50;99.90
43183;DHT22;28802;38.578;-0.066;2022-09-02T06:21:37;29.00;99.90
43183;DHT22;28802;38.578;-0.066;2022-09-02T06:24:05;29.30;99.90
43183;DHT22;28802;38.578;-0.066;2022-09-02T06:26:32;29.50;99.90
43183;DHT22;28802;38.578;-0.066;2022-09-02T06:28:59;29.20;99.90
43183;DHT22;28802;38.578;-0.066;2022-09-02T06:31:25;29.10;99.90
43183;DHT22;28802;38.578;-0.066;2022-09-02T06:33:55;29.30;99.90
43183;DHT22;28802;38.578;-0.066;2022-09-02T06:36:24;29.50;99.90
43183;DHT22;28802;38.578;-0.066;2022-09-02T06:38:53;29.50;99.90
43183;DHT22;28802;38.578;-0.066;2022-09-02T06:41:24;29.10;99.90
43183;DHT22;28802;38.578;-0.066;2022-09-02T06:43:55;29.00;99.90
43183;DHT22;28802;38.578;-0.066;2022-09-02T06:46:29;29.10;99.90
43183;DHT22;28802;38.578;-0.066;2022-09-02T06:48:58;29.20;99.90
43183;DHT22;28802;38.578;-0.066;2022-09-02T06:51:31;29.30;99.90
43183;DHT22;28802;38.578;-0.066;2022-09-02T06:53:59;29.90;99.90
43183;DHT22;28802;38.578;-0.066;2022-09-02T06:56:29;30.40;99.90
43183;DHT22;28802;38.578;-0.066;2022-09-02T06:58:55;30.40;99.90
43183;DHT22;28802;38.578;-0.066;2022-09-02T07:01:33;30.40;99.90
43183;DHT22;28802;38.578;-0.066;2022-09-02T07:04:00;30.20;99.90
43183;DHT22;28802;38.578;-0.066;2022-09-02T07:06:47;30.30;99.90
43183;DHT22;28802;38.578;-0.066;2022-09-02T07:09:19;30.00;99.90
43183;DHT22;28802;38.578;-0.066;2022-09-02T07:11:46;29.80;99.90
43183;DHT22;28802;38.578;-0.066;2022-09-02T07:14:18;29.40;99.90
43183;DHT22;28802;38.578;-0.066;2022-09-02T07:16:49;29.10;99.90
43183;DHT22;28802;38.578;-0.066;2022-09-02T07:19:17;29.20;99.90
43183;DHT22;28802;38.578;-0.066;2022-09-02T07:21:44;29.40;99.90
43183;DHT22;28802;38.578;-0.066;2022-09-02T07:24:13;29.50;99.90
43183;DHT22;28802;38.578;-0.066;2022-09-02T07:26:41;29.80;99.90
43183;DHT22;28802;38.578;-0.066;2022-09-02T07:29:08;29.60;99.90
43183;DHT22;28802;38.578;-0.066;2022-09-02T07:31:36;29.50;99.90
43183;DHT22;28802;38.578;-0.066;2022-09-02T07:34:04;29.30;99.90
43183;DHT22;28802;38.578;-0.066;2022-09-02T07:36:31;29.10;99.90
43183;DHT22;28802;38.578;-0.066;2022-09-02T07:38:57;28.90;99.90
43183;DHT22;28802;38.578;-0.066;2022-09-02T07:41:24;28.90;99.90
43183;DHT22;28802;38.578;-0.066;2022-09-02T07:43:50;28.80;99.90
43183;DHT22;28802;38.578;-0.066;2022-09-02T07:46:16;28.70;99.90
43183;DHT22;28802;38.578;-0.066;2022-09-02T07:48:42;28.50;99.90
43183;DHT22;28802;38.578;-0.066;2022-09-02T07:51:09;28.30;99.90
43183;DHT22;28802;38.578;-0.066;2022-09-02T07:53:37;28.30;99.90
43183;DHT22;28802;38.578;-0.066;2022-09-02T07:56:04;28.30;99.90
43183;DHT22;28802;38.578;-0.066;2022-09-02T07:58:30;28.30;99.90
43183;DHT22;28802;38.578;-0.066;2022-09-02T08:00:56;28.50;99.90
43183;DHT22;28802;38.578;-0.066;2022-09-02T08:03:26;28.40;99.90
43183;DHT22;28802;38.578;-0.066;2022-09-02T08:05:54;28.20;99.90
43183;DHT22;28802;38.578;-0.066;2022-09-02T08:08:21;28.00;99.90
43183;DHT22;28802;38.578;-0.066;2022-09-02T08:10:49;27.80;99.90
43183;DHT22;28802;38.578;-0.066;2022-09-02T08:13:16;28.10;99.90
43183;DHT22;28802;38.578;-0.066;2022-09-02T08:15:43;28.40;99.90
43183;DHT22;28802;38.578;-0.066;2022-09-02T08:18:09;28.40;99.90
43183;DHT22;28802;38.578;-0.066;2022-09-02T08:20:36;28.00;99.90
43183;DHT22;28802;38.578;-0.066;2022-09-02T08:23:03;27.50;99.90
43183;DHT22;28802;38.578;-0.066;2022-09-02T08:25:29;27.50;99.90
43183;DHT22;28802;38.578;-0.066;2022-09-02T08:27:56;27.70;99.90
43183;DHT22;28802;38.578;-0.066;2022-09-02T08:30:21;27.80;99.90
43183;DHT22;28802;38.578;-0.066;2022-09-02T08:32:47;27.90;99.90
43183;DHT22;28802;38.578;-0.066;2022-09-02T08:35:13;28.10;99.90
43183;DHT22;28802;38.578;-0.066;2022-09-02T08:37:39;28.10;99.90
43183;DHT22;28802;38.578;-0.066;2022-09-02T08:40:09;27.70;99.90
43183;DHT22;28802;38.578;-0.066;2022-09-02T08:42:45;27.90;99.90
43183;DHT22;28802;38.578;-0.066;2022-09-02T08:45:13;28.10;99.90
43183;DHT22;28802;38.578;-0.066;2022-09-02T08:47:45;28.00;99.90
43183;DHT22;28802;38.578;-0.066;2022-09-02T08:50:14;28.40;99.90
43183;DHT22;28802;38.578;-0.066;2022-09-02T08:53:00;28.30;99.90
43183;DHT22;28802;38.578;-0.066;2022-09-02T08:55:34;28.40;99.90
43183;DHT22;28802;38.578;-0.066;2022-09-02T08:58:03;28.50;99.90
43183;DHT22;28802;38.578;-0.066;2022-09-02T09:00:36;28.60;99.90
43183;DHT22;28802;38.578;-0.066;2022-09-02T09:03:29;28.40;99.90
43183;DHT22;28802;38.578;-0.066;2022-09-02T09:05:59;28.70;99.90
43183;DHT22;28802;38.578;-0.066;2022-09-02T09:08:50;29.00;99.90
43183;DHT22;28802;38.578;-0.066;2022-09-02T09:11:26;29.60;99.90
43183;DHT22;28802;38.578;-0.066;2022-09-02T09:19:48;30.70;99.90
43183;DHT22;28802;38.578;-0.066;2022-09-02T09:22:17;29.90;99.90
43183;DHT22;28802;38.578;-0.066;2022-09-02T09:24:49;29.80;99.90
43183;DHT22;28802;38.578;-0.066;2022-09-02T09:27:18;29.20;99.90
43183;DHT22;28802;38.578;-0.066;2022-09-02T09:29:44;29.20;99.90
43183;DHT22;28802;38.578;-0.066;2022-09-02T09:37:40;29.90;99.90
43183;DHT22;28802;38.578;-0.066;2022-09-02T09:45:36;32.10;99.90
43183;DHT22;28802;38.578;-0.066;2022-09-02T09:48:17;33.00;99.90
43183;DHT22;28802;38.578;-0.066;2022-09-02T09:51:08;33.40;99.90
43183;DHT22;28802;38.578;-0.066;2022-09-02T09:53:36;33.90;99.90
43183;DHT22;28802;38.578;-0.066;2022-09-02T10:01:22;33.50;99.90
43183;DHT22;28802;38.578;-0.066;2022-09-02T10:09:04;32.90;99.90
43183;DHT22;28802;38.578;-0.066;2022-09-02T10:11:33;33.10;99.90
43183;DHT22;28802;38.578;-0.066;2022-09-02T10:14:03;33.50;99.90
43183;DHT22;28802;38.578;-0.066;2022-09-02T10:30:17;32.70;99.90
43183;DHT22;28802;38.578;-0.066;2022-09-02T10:38:21;33.00;99.90
43183;DHT22;28802;38.578;-0.066;2022-09-02T10:43:53;32.70;99.90
43183;DHT22;28802;38.578;-0.066;2022-09-02T10:46:23;32.10;99.90
43183;DHT22;28802;38.578;-0.066;2022-09-02T10:57:10;32.60;99.90
43183;DHT22;28802;38.578;-0.066;2022-09-02T11:06:03;33.60;99.90
43183;DHT22;28802;38.578;-0.066;2022-09-02T11:08:46;34.40;99.90
43183;DHT22;28802;38.578;-0.066;2022-09-02T11:11:31;34.40;99.90
43183;DHT22;28802;38.578;-0.066;2022-09-02T11:14:21;34.60;99.90
43183;DHT22;28802;38.578;-0.066;2022-09-02T11:17:08;35.60;99.90
43183;DHT22;28802;38.578;-0.066;2022-09-02T11:20:00;35.50;99.90
43183;DHT22;28802;38.578;-0.066;2022-09-02T11:22:54;34.70;99.90
43183;DHT22;28802;38.578;-0.066;2022-09-02T11:30:54;36.30;99.90
43183;DHT22;28802;38.578;-0.066;2022-09-02T11:33:50;36.80;99.90
43183;DHT22;28802;38.578;-0.066;2022-09-02T11:36:14;37.20;99.90
43183;DHT22;28802;38.578;-0.066;2022-09-02T11:38:51;36.90;99.90
43183;DHT22;28802;38.578;-0.066;2022-09-02T11:41:34;36.70;99.90
43183;DHT22;28802;38.578;-0.066;2022-09-02T11:49:23;37.60;99.90
43183;DHT22;28802;38.578;-0.066;2022-09-02T11:54:44;36.10;99.90
43183;DHT22;28802;38.578;-0.066;2022-09-02T11:57:22;36.00;99.90
43183;DHT22;28802;38.578;-0.066;2022-09-02T12:08:09;35.60;99.90
43183;DHT22;28802;38.578;-0.066;2022-09-02T12:13:11;36.90;99.90
43183;DHT22;28802;38.578;-0.066;2022-09-02T12:18:45;37.10;99.90
43183;DHT22;28802;38.578;-0.066;2022-09-02T12:21:33;37.30;99.90
43183;DHT22;28802;38.578;-0.066;2022-09-02T12:24:10;37.60;99.30
43183;DHT22;28802;38.578;-0.066;2022-09-02T12:31:47;36.40;99.90
43183;DHT22;28802;38.578;-0.066;2022-09-02T12:42:00;35.70;99.90
43183;DHT22;28802;38.578;-0.066;2022-09-02T12:50:11;35.40;99.90
43183;DHT22;28802;38.578;-0.066;2022-09-02T12:52:45;35.70;99.90
43183;DHT22;28802;38.578;-0.066;2022-09-02T12:55:26;35.80;99.90
43183;DHT22;28802;38.578;-0.066;2022-09-02T12:58:10;35.90;99.90
43183;DHT22;28802;38.578;-0.066;2022-09-02T13:01:05;35.20;99.90
43183;DHT22;28802;38.578;-0.066;2022-09-02T13:03:46;35.10;99.90
43183;DHT22;28802;38.578;-0.066;2022-09-02T13:06:43;34.80;99.90
43183;DHT22;28802;38.578;-0.066;2022-09-02T13:15:00;33.70;99.90
43183;DHT22;28802;38.578;-0.066;2022-09-02T13:17:44;33.60;99.90
43183;DHT22;28802;38.578;-0.066;2022-09-02T13:32:14;34.20;99.90
43183;DHT22;28802;38.578;-0.066;2022-09-02T13:34:48;34.00;99.90
43183;DHT22;28802;38.578;-0.066;2022-09-02T13:37:42;34.10;99.90
43183;DHT22;28802;38.578;-0.066;2022-09-02T13:40:26;34.00;99.90
43183;DHT22;28802;38.578;-0.066;2022-09-02T13:42:55;33.60;99.90
43183;DHT22;28802;38.578;-0.066;2022-09-02T13:45:24;33.50;99.90
43183;DHT22;28802;38.578;-0.066;2022-09-02T13:47:57;33.40;99.90
43183;DHT22;28802;38.578;-0.066;2022-09-02T13:50:26;33.60;99.90
43183;DHT22;28802;38.578;-0.066;2022-09-02T13:55:51;33.40;99.90
43183;DHT22;28802;38.578;-0.066;2022-09-02T14:00:55;33.00;99.90
43183;DHT22;28802;38.578;-0.066;2022-09-02T14:03:22;33.30;99.90
43183;DHT22;28802;38.578;-0.066;2022-09-02T14:05:53;33.10;99.90
43183;DHT22;28802;38.578;-0.066;2022-09-02T14:08:22;33.20;99.90
43183;DHT22;28802;38.578;-0.066;2022-09-02T14:10:50;33.10;99.90
43183;DHT22;28802;38.578;-0.066;2022-09-02T14:13:19;33.20;99.90
43183;DHT22;28802;38.578;-0.066;2022-09-02T14:15:45;33.20;99.90
43183;DHT22;28802;38.578;-0.066;2022-09-02T14:18:19;33.20;99.90
43183;DHT22;28802;38.578;-0.066;2022-09-02T14:23:39;33.00;99.90
43183;DHT22;28802;38.578;-0.066;2022-09-02T14:26:20;32.90;99.90
43183;DHT22;28802;38.578;-0.066;2022-09-02T14:28:50;32.80;99.90
43183;DHT22;28802;38.578;-0.066;2022-09-02T14:31:27;32.60;99.90
43183;DHT22;28802;38.578;-0.066;2022-09-02T14:33:56;32.40;99.90
43183;DHT22;28802;38.578;-0.066;2022-09-02T14:38:54;32.20;99.90
43183;DHT22;28802;38.578;-0.066;2022-09-02T14:41:27;32.20;99.90
43183;DHT22;28802;38.578;-0.066;2022-09-02T14:44:14;32.00;99.90
43183;DHT22;28802;38.578;-0.066;2022-09-02T14:46:46;31.90;99.90
43183;DHT22;28802;38.578;-0.066;2022-09-02T14:49:30;31.70;99.90
43183;DHT22;28802;38.578;-0.066;2022-09-02T14:52:02;31.60;99.90
43183;DHT22;28802;38.578;-0.066;2022-09-02T14:54:51;31.50;99.90
43183;DHT22;28802;38.578;-0.066;2022-09-02T15:00:02;31.40;99.90
43183;DHT22;28802;38.578;-0.066;2022-09-02T15:02:32;31.40;99.90
43183;DHT22;28802;38.578;-0.066;2022-09-02T15:05:04;31.30;99.90
43183;DHT22;28802;38.578;-0.066;2022-09-02T15:07:31;31.30;99.90
43183;DHT22;28802;38.578;-0.066;2022-09-02T15:09:57;31.20;99.90
43183;DHT22;28802;38.578;-0.066;2022-09-02T15:12:49;31.10;99.90
43183;DHT22;28802;38.578;-0.066;2022-09-02T15:15:17;31.10;99.90
43183;DHT22;28802;38.578;-0.066;2022-09-02T15:17:43;31.10;99.90
43183;DHT22;28802;38.578;-0.066;2022-09-02T15:20:10;31.10;99.90
43183;DHT22;28802;38.578;-0.066;2022-09-02T15:22:36;31.10;99.90
43183;DHT22;28802;38.578;-0.066;2022-09-02T15:25:03;31.10;99.90
43183;DHT22;28802;38.578;-0.066;2022-09-02T15:27:33;31.10;99.90
43183;DHT22;28802;38.578;-0.066;2022-09-02T15:30:02;31.20;99.90
43183;DHT22;28802;38.578;-0.066;2022-09-02T15:32:28;31.10;99.90
43183;DHT22;28802;38.578;-0.066;2022-09-02T15:34:55;31.20;99.90
43183;DHT22;28802;38.578;-0.066;2022-09-02T15:37:21;31.30;99.90
43183;DHT22;28802;38.578;-0.066;2022-09-02T15:39:48;31.20;99.90
43183;DHT22;28802;38.578;-0.066;2022-09-02T15:42:14;31.30;99.90
43183;DHT22;28802;38.578;-0.066;2022-09-02T15:44:43;31.30;99.90
43183;DHT22;28802;38.578;-0.066;2022-09-02T15:47:08;31.20;99.90
43183;DHT22;28802;38.578;-0.066;2022-09-02T15:49:34;31.30;99.90
43183;DHT22;28802;38.578;-0.066;2022-09-02T15:52:00;31.10;99.90
43183;DHT22;28802;38.578;-0.066;2022-09-02T15:54:27;31.20;99.90
43183;DHT22;28802;38.578;-0.066;2022-09-02T15:56:57;31.20;99.90
43183;DHT22;28802;38.578;-0.066;2022-09-02T15:59:24;31.10;99.90
43183;DHT22;28802;38.578;-0.066;2022-09-02T16:01:53;31.10;99.90
43183;DHT22;28802;38.578;-0.066;2022-09-02T16:04:20;31.20;99.90
43183;DHT22;28802;38.578;-0.066;2022-09-02T16:06:47;31.10;99.90
43183;DHT22;28802;38.578;-0.066;2022-09-02T16:09:15;31.20;99.90
43183;DHT22;28802;38.578;-0.066;2022-09-02T16:11:50;31.30;99.90
43183;DHT22;28802;38.578;-0.066;2022-09-02T16:14:17;31.30;99.90
43183;DHT22;28802;38.578;-0.066;2022-09-02T16:16:44;31.10;99.90
43183;DHT22;28802;38.578;-0.066;2022-09-02T16:19:11;31.10;99.90
43183;DHT22;28802;38.578;-0.066;2022-09-02T16:21:37;31.10;99.90
43183;DHT22;28802;38.578;-0.066;2022-09-02T16:24:06;31.20;99.90
43183;DHT22;28802;38.578;-0.066;2022-09-02T16:26:34;31.10;99.90
43183;DHT22;28802;38.578;-0.066;2022-09-02T16:29:03;31.20;99.90
43183;DHT22;28802;38.578;-0.066;2022-09-02T16:31:31;31.00;99.90
43183;DHT22;28802;38.578;-0.066;2022-09-02T16:33:59;31.00;99.90
43183;DHT22;28802;38.578;-0.066;2022-09-02T16:36:27;31.10;99.90
43183;DHT22;28802;38.578;-0.066;2022-09-02T16:38:54;31.00;99.90
43183;DHT22;28802;38.578;-0.066;2022-09-02T16:41:29;30.90;99.90
43183;DHT22;28802;38.578;-0.066;2022-09-02T16:43:58;30.90;99.90
43183;DHT22;28802;38.578;-0.066;2022-09-02T16:46:26;30.90;99.90
43183;DHT22;28802;38.578;-0.066;2022-09-02T16:48:53;31.00;99.90
43183;DHT22;28802;38.578;-0.066;2022-09-02T16:51:20;31.00;99.90
43183;DHT22;28802;38.578;-0.066;2022-09-02T16:53:46;31.00;99.90
43183;DHT22;28802;38.578;-0.066;2022-09-02T16:56:17;30.80;99.90
43183;DHT22;28802;38.578;-0.066;2022-09-02T16:58:42;30.80;99.90
43183;DHT22;28802;38.578;-0.066;2022-09-02T17:01:10;30.70;99.90
43183;DHT22;28802;38.578;-0.066;2022-09-02T17:03:39;30.60;99.90
43183;DHT22;28802;38.578;-0.066;2022-09-02T17:06:06;30.70;99.90
43183;DHT22;28802;38.578;-0.066;2022-09-02T17:08:33;30.60;99.90
43183;DHT22;28802;38.578;-0.066;2022-09-02T17:11:17;30.60;99.90
43183;DHT22;28802;38.578;-0.066;2022-09-02T17:13:51;30.60;99.90
43183;DHT22;28802;38.578;-0.066;2022-09-02T17:16:19;30.50;99.90
43183;DHT22;28802;38.578;-0.066;2022-09-02T17:18:46;30.50;99.90
43183;DHT22;28802;38.578;-0.066;2022-09-02T17:23:50;30.60;99.90
43183;DHT22;28802;38.578;-0.066;2022-09-02T17:26:18;30.60;99.90
43183;DHT22;28802;38.578;-0.066;2022-09-02T17:28:44;30.50;99.90
43183;DHT22;28802;38.578;-0.066;2022-09-02T17:31:30;30.60;99.90
43183;DHT22;28802;38.578;-0.066;2022-09-02T17:34:00;30.40;99.90
43183;DHT22;28802;38.578;-0.066;2022-09-02T17:36:28;30.40;99.90
43183;DHT22;28802;38.578;-0.066;2022-09-02T17:39:02;30.40;99.90
43183;DHT22;28802;38.578;-0.066;2022-09-02T17:41:29;30.40;99.90
43183;DHT22;28802;38.578;-0.066;2022-09-02T17:44:14;30.40;99.90
43183;DHT22;28802;38.578;-0.066;2022-09-02T17:46:41;30.40;99.90
43183;DHT22;28802;38.578;-0.066;2022-09-02T17:49:08;30.50;99.90
43183;DHT22;28802;38.578;-0.066;2022-09-02T17:51:34;30.50;99.90
43183;DHT22;28802;38.578;-0.066;2022-09-02T17:54:00;30.50;99.90
43183;DHT22;28802;38.578;-0.066;2022-09-02T18:10:13;30.20;99.90
43183;DHT22;28802;38.578;-0.066;2022-09-02T18:12:39;30.10;99.90
43183;DHT22;28802;38.578;-0.066;2022-09-02T18:15:08;30.10;99.90
43183;DHT22;28802;38.578;-0.066;2022-09-02T18:17:40;30.10;99.90